Time;durP1;ratioP1;P1;durP2;ratioP2;P2;SDS_P1;SDS_P2;PMS_P1;PMS_P2;Temp;Humidity;BMP_temperature;BMP_pressure;BME280_temperature;BME280_humidity;BME280_pressure;Samples;Min_cycle;Max_cycle;Signal;HPM_P1;HPM_P2
2024/03/05 09:26:25;;;;;;;2.27;1.37;;;10.10;99.90;;;;;;4919138;23;20736;-74
2024/03/05 09:28:53;;;;;;;1.00;0.50;;;10.00;99.90;;;;;;4910264;29;20578;-74
2024/03/05 09:31:20;;;;;;;2.37;0.80;;;9.80;99.90;;;;;;4918654;29;20260;-74
2024/03/05 09:33:47;;;;;;;1.07;0.90;;;9.70;99.90;;;;;;4917990;29;20213;-74
2024/03/05 09:36:13;;;;;;;1.17;0.50;;;9.70;99.90;;;;;;4918230;29;20294;-74
2024/03/05 09:38:40;;;;;;;0.67;0.60;;;9.80;99.90;;;;;;4918569;29;20220;-74
2024/03/05 09:41:08;;;;;;;1.10;0.60;;;9.90;99.90;;;;;;4918237;29;20241;-74
2024/03/05 09:43:41;;;;;;;1.37;0.70;;;9.80;99.90;;;;;;4918317;29;20209;-74
2024/03/05 09:46:08;;;;;;;2.80;0.97;;;9.70;99.90;;;;;;4918041;29;20277;-74
2024/03/05 09:48:35;;;;;;;1.63;0.80;;;9.50;99.90;;;;;;4918170;29;20653;-74
2024/03/05 09:51:04;;;;;;;1.77;0.90;;;9.60;99.90;;;;;;4917669;29;20316;-72
2024/03/05 09:53:30;;;;;;;1.87;0.70;;;9.40;99.90;;;;;;4917163;29;20213;-73
2024/03/05 09:55:58;;;;;;;2.17;0.80;;;9.30;99.90;;;;;;4917846;29;20688;-73
2024/03/05 09:58:35;;;;;;;2.70;0.80;;;9.30;99.90;;;;;;4918306;29;20296;-74
2024/03/05 10:01:05;;;;;;;0.93;0.60;;;9.40;99.90;;;;;;4914877;29;20598;-73
2024/03/05 10:03:32;;;;;;;2.10;0.70;;;9.40;99.90;;;;;;4912166;29;20317;-73
2024/03/05 10:06:00;;;;;;;2.50;0.50;;;9.40;99.90;;;;;;4916488;29;20229;-73
2024/03/05 10:08:27;;;;;;;1.17;0.60;;;9.50;99.90;;;;;;4915946;29;20563;-72
2024/03/05 10:11:00;;;;;;;0.77;0.60;;;9.60;99.90;;;;;;4916358;29;20230;-73
2024/03/05 10:13:31;;;;;;;1.67;0.63;;;9.60;99.90;;;;;;4915943;29;20214;-73
2024/03/05 10:16:14;;;;;;;1.23;0.73;;;9.40;99.90;;;;;;4916634;29;20216;-74
2024/03/05 10:18:41;;;;;;;0.80;0.43;;;9.30;99.90;;;;;;4916123;29;20239;-73
2024/03/05 10:21:20;;;;;;;1.10;0.60;;;9.40;99.90;;;;;;4916327;29;20292;-73
2024/03/05 10:23:49;;;;;;;1.57;0.60;;;9.40;99.90;;;;;;4916104;29;20220;-73
2024/03/05 10:26:19;;;;;;;0.70;0.60;;;9.50;99.90;;;;;;4915506;29;20315;-71
2024/03/05 10:28:46;;;;;;;1.37;0.70;;;9.50;99.90;;;;;;4916308;29;20209;-73
2024/03/05 10:31:25;;;;;;;1.87;0.70;;;9.60;99.90;;;;;;4915751;29;20669;-73
2024/03/05 10:33:56;;;;;;;1.77;0.87;;;9.70;99.90;;;;;;4916439;29;20305;-75
2024/03/05 10:36:27;;;;;;;1.07;0.60;;;9.70;99.90;;;;;;4916116;29;20690;-81
2024/03/05 10:38:54;;;;;;;0.97;0.70;;;9.80;99.90;;;;;;4915584;29;20218;-73
2024/03/05 10:41:22;;;;;;;1.10;0.70;;;9.80;99.90;;;;;;4916181;29;20316;-72
2024/03/05 10:43:52;;;;;;;1.63;0.80;;;9.60;99.90;;;;;;4917118;29;20236;-72
2024/03/05 10:46:22;;;;;;;0.77;0.60;;;9.60;99.90;;;;;;4921833;29;20234;-73
2024/03/05 10:48:52;;;;;;;2.63;1.03;;;9.50;99.90;;;;;;4922517;29;20300;-72
2024/03/05 10:51:21;;;;;;;0.73;0.60;;;9.70;99.90;;;;;;4922756;29;20218;-72
2024/03/05 10:53:50;;;;;;;1.17;0.70;;;9.70;99.90;;;;;;4919841;29;20288;-73
2024/03/05 10:56:18;;;;;;;0.90;0.53;;;9.90;99.90;;;;;;4916982;29;20217;-72
2024/03/05 10:59:23;;;;;;;1.40;0.80;;;9.90;99.90;;;;;;4917186;29;20570;-74
2024/03/05 11:01:53;;;;;;;1.93;0.73;;;10.00;99.90;;;;;;4916854;29;20304;-72
2024/03/05 11:04:22;;;;;;;1.20;0.80;;;9.80;99.90;;;;;;4898051;29;20213;-72
2024/03/05 11:06:54;;;;;;;1.63;1.00;;;9.90;99.90;;;;;;4904795;29;20335;-73
2024/03/05 11:09:22;;;;;;;1.93;0.97;;;10.00;99.90;;;;;;4916509;29;20210;-73
2024/03/05 11:11:52;;;;;;;1.87;0.77;;;10.00;99.90;;;;;;4916521;29;20698;-73
2024/03/05 11:14:21;;;;;;;1.93;1.20;;;10.30;99.90;;;;;;4905322;29;20300;-73
2024/03/05 11:16:57;;;;;;;2.67;1.10;;;10.60;99.90;;;;;;4916565;29;20292;-73
2024/03/05 11:19:26;;;;;;;1.20;0.70;;;10.80;99.90;;;;;;4916675;29;20305;-72
2024/03/05 11:21:53;;;;;;;1.63;0.70;;;10.90;99.90;;;;;;4916468;29;20236;-73
2024/03/05 11:24:21;;;;;;;1.10;0.53;;;10.80;99.90;;;;;;4916576;29;20308;-72
2024/03/05 11:26:48;;;;;;;1.10;0.50;;;10.60;99.90;;;;;;4916150;29;20265;-73
2024/03/05 11:29:34;;;;;;;2.57;0.90;;;10.50;99.90;;;;;;4916445;29;20216;-73
2024/03/05 11:32:03;;;;;;;3.87;1.27;;;10.50;99.90;;;;;;4916370;29;20333;-73
2024/03/05 11:34:31;;;;;;;0.93;0.67;;;10.40;99.90;;;;;;4916581;29;20206;-72
2024/03/05 11:37:08;;;;;;;5.57;0.90;;;10.50;99.90;;;;;;4916662;29;20213;-73
2024/03/05 11:39:41;;;;;;;1.23;0.63;;;10.90;99.90;;;;;;4916463;29;20301;-73
2024/03/05 11:42:16;;;;;;;1.07;0.80;;;11.20;99.90;;;;;;4915893;29;20320;-73
2024/03/05 11:44:54;;;;;;;4.53;0.83;;;11.40;99.90;;;;;;4916585;29;20224;-73
2024/03/05 11:47:23;;;;;;;7.63;1.20;;;11.30;99.90;;;;;;4916536;29;20578;-73
2024/03/05 11:49:51;;;;;;;2.80;0.83;;;11.10;99.90;;;;;;4916567;29;20216;-72
2024/03/05 11:52:19;;;;;;;1.23;0.90;;;11.30;99.90;;;;;;4916446;29;20229;-73
2024/03/05 11:54:56;;;;;;;1.57;0.70;;;11.60;99.90;;;;;;4910953;29;20210;-74
2024/03/05 11:57:23;;;;;;;1.57;0.87;;;11.80;99.90;;;;;;4917210;29;20573;-75
2024/03/05 11:59:50;;;;;;;2.07;0.90;;;12.20;99.90;;;;;;4918268;29;20292;-73
2024/03/05 12:02:17;;;;;;;3.10;1.00;;;12.50;99.90;;;;;;4919072;29;20233;-74
2024/03/05 12:04:48;;;;;;;2.53;0.93;;;12.60;99.90;;;;;;4915554;29;20233;-74
2024/03/05 12:07:16;;;;;;;2.83;0.80;;;12.10;99.90;;;;;;4911282;29;20237;-75
2024/03/05 12:09:43;;;;;;;1.33;0.80;;;11.90;99.90;;;;;;4918520;29;20205;-74
2024/03/05 12:12:12;;;;;;;2.97;0.80;;;11.90;99.90;;;;;;4918452;29;20304;-74
2024/03/05 12:14:41;;;;;;;1.30;0.80;;;12.00;99.90;;;;;;4918836;29;20625;-75
2024/03/05 12:17:08;;;;;;;0.93;0.70;;;11.80;99.90;;;;;;4918618;29;20213;-74
2024/03/05 12:19:37;;;;;;;4.03;1.17;;;11.90;99.90;;;;;;4918409;29;20244;-73
2024/03/05 12:22:06;;;;;;;1.50;0.80;;;11.90;99.90;;;;;;4919967;29;20241;-73
2024/03/05 12:24:34;;;;;;;1.63;0.80;;;11.90;99.90;;;;;;4919523;29;20571;-73
2024/03/05 12:27:01;;;;;;;1.27;0.60;;;12.00;99.90;;;;;;4919318;29;20706;-73
2024/03/05 12:29:32;;;;;;;1.40;0.60;;;12.10;99.90;;;;;;4919481;29;20305;-73
2024/03/05 12:32:03;;;;;;;1.77;0.77;;;12.00;99.90;;;;;;4918903;29;20268;-73
2024/03/05 12:34:30;;;;;;;2.20;0.70;;;12.10;99.90;;;;;;4918914;29;20678;-73
2024/03/05 12:36:57;;;;;;;3.60;0.87;;;12.30;99.90;;;;;;4919280;29;20214;-73
2024/03/05 12:39:28;;;;;;;1.70;0.60;;;12.30;99.90;;;;;;4919644;29;20289;-72
2024/03/05 12:42:03;;;;;;;2.03;0.90;;;12.30;99.90;;;;;;4919976;29;20229;-73
2024/03/05 12:44:31;;;;;;;2.57;1.07;;;12.50;99.90;;;;;;4919197;29;20297;-73
2024/03/05 12:47:09;;;;;;;2.20;1.10;;;12.40;99.90;;;;;;4915582;29;20561;-74
2024/03/05 12:49:43;;;;;;;1.77;0.70;;;12.40;99.90;;;;;;4918077;29;20261;-73
2024/03/05 12:52:11;;;;;;;0.83;0.60;;;12.50;99.90;;;;;;4917233;29;20280;-74
2024/03/05 12:54:39;;;;;;;0.93;0.60;;;12.60;99.90;;;;;;4917615;29;20256;-74
2024/03/05 12:57:07;;;;;;;3.37;0.40;;;12.50;99.90;;;;;;4918351;29;20217;-73
2024/03/05 12:59:34;;;;;;;1.00;0.60;;;12.70;99.90;;;;;;4918446;29;20197;-72
2024/03/05 13:02:01;;;;;;;1.67;0.80;;;12.90;99.90;;;;;;4920339;29;20233;-73
2024/03/05 13:04:28;;;;;;;4.10;0.57;;;12.80;99.90;;;;;;4916836;29;20216;-74
2024/03/05 13:06:55;;;;;;;1.37;0.60;;;12.80;99.90;;;;;;4911811;29;20332;-73
2024/03/05 13:09:22;;;;;;;0.93;0.80;;;12.70;99.90;;;;;;4917168;29;20308;-73
2024/03/05 13:11:52;;;;;;;1.63;0.60;;;12.80;99.90;;;;;;4917497;29;20221;-72
2024/03/05 13:14:19;;;;;;;0.97;0.37;;;12.60;99.90;;;;;;4917690;29;20722;-74
2024/03/05 13:16:46;;;;;;;2.20;0.90;;;12.50;99.90;;;;;;4917253;29;20304;-73
2024/03/05 13:19:13;;;;;;;2.80;0.60;;;12.30;99.90;;;;;;4914542;29;20205;-74
2024/03/05 13:21:41;;;;;;;2.37;0.60;;;12.00;99.90;;;;;;4915946;29;20567;-72
2024/03/05 13:24:09;;;;;;;2.73;0.50;;;11.70;99.90;;;;;;4915653;29;20669;-72
2024/03/05 13:26:36;;;;;;;1.13;0.70;;;11.70;99.90;;;;;;4917018;29;20221;-74
2024/03/05 13:29:04;;;;;;;1.20;0.67;;;11.70;99.90;;;;;;4918647;29;20209;-73
2024/03/05 13:31:31;;;;;;;1.60;0.70;;;11.70;99.90;;;;;;4919160;29;20257;-74
2024/03/05 13:33:58;;;;;;;2.83;0.50;;;11.60;99.90;;;;;;4918705;29;20210;-74
2024/03/05 13:36:25;;;;;;;3.23;0.60;;;11.70;99.90;;;;;;4918684;29;20326;-73
2024/03/05 13:38:52;;;;;;;1.20;0.50;;;11.70;99.90;;;;;;4918557;29;20758;-73
2024/03/05 13:41:20;;;;;;;1.83;0.50;;;11.60;99.90;;;;;;4918114;29;20717;-73
2024/03/05 13:43:47;;;;;;;0.50;0.37;;;11.70;99.90;;;;;;4918894;29;20214;-74
2024/03/05 13:46:15;;;;;;;1.77;0.53;;;11.60;99.90;;;;;;4914245;29;20210;-76
2024/03/05 13:48:42;;;;;;;1.67;0.30;;;11.60;99.90;;;;;;4916983;29;20233;-74
2024/03/05 13:51:09;;;;;;;2.00;0.40;;;11.50;99.90;;;;;;4916484;29;20264;-74
2024/03/05 13:53:36;;;;;;;2.20;0.67;;;11.30;99.90;;;;;;4918138;29;20297;-74
2024/03/05 13:56:04;;;;;;;0.90;0.40;;;11.50;99.90;;;;;;4918007;29;20210;-73
2024/03/05 13:58:33;;;;;;;0.80;0.37;;;11.60;99.90;;;;;;4918398;29;20209;-74
2024/03/05 14:01:00;;;;;;;1.73;0.50;;;11.70;99.90;;;;;;4917847;29;20268;-74
2024/03/05 14:03:28;;;;;;;1.10;0.47;;;11.60;99.90;;;;;;4918400;29;20209;-76
2024/03/05 14:05:55;;;;;;;1.37;0.50;;;11.60;99.90;;;;;;4918326;29;20217;-73
2024/03/05 14:08:22;;;;;;;1.00;0.63;;;11.60;99.90;;;;;;4918293;29;20268;-78
2024/03/05 14:10:50;;;;;;;1.53;0.50;;;11.80;99.90;;;;;;4918064;29;20316;-78
2024/03/05 14:13:20;;;;;;;1.77;0.40;;;11.80;99.90;;;;;;4918256;29;20240;-77
2024/03/05 14:15:49;;;;;;;1.40;0.77;;;11.80;99.90;;;;;;4917643;29;20214;-77
2024/03/05 14:18:16;;;;;;;3.13;0.50;;;11.70;99.90;;;;;;4918097;29;20216;-73
2024/03/05 14:20:44;;;;;;;2.37;0.50;;;11.60;99.90;;;;;;4917640;29;20607;-77
2024/03/05 14:23:11;;;;;;;1.10;0.50;;;11.60;99.90;;;;;;4917309;29;20212;-77
2024/03/05 14:25:38;;;;;;;3.20;0.50;;;11.50;99.90;;;;;;4917857;29;20221;-74
2024/03/05 14:28:06;;;;;;;2.87;0.73;;;11.60;99.90;;;;;;4917667;29;20732;-79
2024/03/05 14:30:33;;;;;;;3.67;0.60;;;11.70;99.90;;;;;;4917488;29;20216;-78
2024/03/05 14:33:03;;;;;;;1.20;0.67;;;11.80;99.90;;;;;;4917838;29;20209;-74
2024/03/05 14:35:30;;;;;;;0.87;0.60;;;11.70;99.90;;;;;;4917791;29;20241;-77
2024/03/05 14:37:58;;;;;;;0.93;0.53;;;11.90;99.90;;;;;;4917456;29;20213;-77
2024/03/05 14:40:26;;;;;;;1.47;0.77;;;11.90;99.90;;;;;;4917349;29;20213;-73
2024/03/05 14:42:53;;;;;;;2.40;0.70;;;12.00;99.90;;;;;;4917220;29;20320;-75
2024/03/05 14:45:20;;;;;;;0.43;0.30;;;12.00;99.90;;;;;;4917258;29;20646;-74
2024/03/05 14:47:49;;;;;;;1.27;0.60;;;11.70;99.90;;;;;;4917044;29;20635;-77
2024/03/05 14:50:19;;;;;;;1.13;0.53;;;11.70;99.90;;;;;;4917763;29;20241;-79
2024/03/05 14:52:46;;;;;;;1.27;0.90;;;11.90;99.90;;;;;;4917316;29;20823;-77
2024/03/05 14:55:14;;;;;;;2.43;1.40;;;12.20;99.90;;;;;;4917343;29;20282;-73
2024/03/05 14:57:42;;;;;;;1.07;0.70;;;12.50;99.90;;;;;;4918351;29;20300;-74
2024/03/05 15:00:12;;;;;;;2.17;0.80;;;12.70;99.90;;;;;;4918901;29;20213;-77
2024/03/05 15:02:40;;;;;;;2.30;0.73;;;12.90;99.90;;;;;;4919216;29;20245;-77
2024/03/05 15:05:10;;;;;;;1.97;0.50;;;12.60;99.90;;;;;;4912511;29;20213;-77
2024/03/05 15:07:39;;;;;;;1.03;0.70;;;12.60;99.90;;;;;;4912780;29;20229;-76
2024/03/05 15:10:12;;;;;;;1.40;0.87;;;12.60;99.90;;;;;;4916934;29;20210;-75
2024/03/05 15:12:40;;;;;;;2.40;1.33;;;12.50;99.90;;;;;;4917254;29;20277;-76
2024/03/05 15:15:10;;;;;;;0.90;0.53;;;12.50;99.90;;;;;;4917075;29;20213;-77
2024/03/05 15:17:37;;;;;;;1.47;0.53;;;12.30;99.90;;;;;;4916896;29;20217;-76
2024/03/05 15:20:10;;;;;;;0.73;0.53;;;12.30;99.90;;;;;;4918105;29;20221;-78
2024/03/05 15:22:38;;;;;;;2.73;0.63;;;12.30;99.90;;;;;;4933392;23;20288;-73
2024/03/05 15:25:07;;;;;;;2.40;0.70;;;12.20;99.90;;;;;;4916771;29;20225;-73
2024/03/05 15:27:34;;;;;;;2.07;0.60;;;11.90;99.90;;;;;;4916687;29;20284;-73
2024/03/05 15:30:02;;;;;;;3.03;1.10;;;11.70;99.90;;;;;;4916540;29;20205;-73
2024/03/05 15:32:30;;;;;;;1.83;0.60;;;11.60;99.90;;;;;;4915692;29;20225;-73
2024/03/05 15:34:57;;;;;;;1.50;0.57;;;11.70;99.90;;;;;;4916167;29;20214;-73
2024/03/05 15:37:24;;;;;;;0.53;0.33;;;11.70;99.90;;;;;;4915910;29;20205;-73
2024/03/05 15:39:51;;;;;;;2.33;1.00;;;11.60;99.90;;;;;;4916675;29;20221;-73
2024/03/05 15:42:18;;;;;;;2.47;0.60;;;11.40;99.90;;;;;;4916277;29;20785;-73
2024/03/05 15:44:45;;;;;;;0.87;0.50;;;11.30;99.90;;;;;;4916357;29;20209;-73
2024/03/05 15:47:13;;;;;;;1.67;0.50;;;11.50;99.90;;;;;;4915884;29;20667;-73
2024/03/05 15:49:41;;;;;;;1.33;0.70;;;11.50;99.90;;;;;;4916343;29;20213;-72
2024/03/05 15:52:08;;;;;;;3.83;0.73;;;11.50;99.90;;;;;;4916623;29;20237;-73
2024/03/05 15:54:39;;;;;;;2.60;0.80;;;11.40;99.90;;;;;;4916191;29;20210;-73
2024/03/05 15:57:08;;;;;;;0.73;0.47;;;11.50;99.90;;;;;;4916031;29;20205;-73
2024/03/05 16:02:23;;;;;;;3.37;0.67;;;11.80;99.90;;;;;;4896916;29;20607;-73
2024/03/05 16:04:51;;;;;;;2.83;0.87;;;11.80;99.90;;;;;;4916058;29;20264;-73
2024/03/05 16:07:19;;;;;;;4.10;0.97;;;11.80;99.90;;;;;;4915981;29;20213;-73
2024/03/05 16:09:46;;;;;;;1.70;0.53;;;11.70;99.90;;;;;;4916059;29;20210;-73
2024/03/05 16:12:13;;;;;;;3.73;0.90;;;11.70;99.90;;;;;;4915817;29;20232;-72
2024/03/05 16:14:40;;;;;;;1.93;0.60;;;11.80;99.90;;;;;;4916083;29;20694;-73
2024/03/05 16:17:09;;;;;;;1.23;0.90;;;11.80;99.90;;;;;;4916242;29;20297;-72
2024/03/05 16:19:37;;;;;;;1.40;1.17;;;12.00;99.90;;;;;;4916242;29;20209;-73
2024/03/05 16:22:04;;;;;;;1.80;0.90;;;12.20;99.90;;;;;;4915994;29;20288;-72
2024/03/05 16:24:31;;;;;;;2.80;0.73;;;12.20;99.90;;;;;;4916144;29;20271;-72
2024/03/05 16:26:59;;;;;;;3.37;0.83;;;12.10;99.90;;;;;;4915871;29;20694;-73
2024/03/05 16:29:26;;;;;;;1.97;0.90;;;12.10;99.90;;;;;;4910209;29;20237;-73
2024/03/05 16:31:53;;;;;;;3.23;1.00;;;12.00;99.90;;;;;;4915989;29;20325;-73
2024/03/05 16:34:22;;;;;;;5.70;0.77;;;11.80;99.90;;;;;;4915791;29;20210;-73
2024/03/05 16:36:50;;;;;;;4.50;1.23;;;11.80;99.90;;;;;;4916058;29;20237;-72
2024/03/05 16:39:19;;;;;;;3.90;1.07;;;11.80;99.90;;;;;;4915749;29;20232;-72
2024/03/05 16:41:46;;;;;;;2.93;1.10;;;11.70;99.90;;;;;;4915507;29;20230;-72
2024/03/05 16:44:13;;;;;;;1.03;0.80;;;11.60;99.90;;;;;;4917888;29;20297;-73
2024/03/05 16:46:40;;;;;;;1.20;0.70;;;11.50;99.90;;;;;;4919335;29;20202;-72
2024/03/05 16:49:08;;;;;;;6.83;1.33;;;11.40;99.90;;;;;;4918989;29;20783;-74
2024/03/05 16:51:36;;;;;;;3.40;0.80;;;11.10;99.90;;;;;;4919374;29;20564;-73
2024/03/05 16:54:04;;;;;;;3.83;1.10;;;10.70;99.90;;;;;;4919250;29;20240;-73
2024/03/05 16:56:31;;;;;;;1.83;1.10;;;10.60;99.90;;;;;;4919083;29;20216;-73
2024/03/05 16:59:00;;;;;;;1.83;0.97;;;10.50;99.90;;;;;;4918820;29;20297;-73
2024/03/05 17:01:27;;;;;;;3.40;1.00;;;10.50;99.90;;;;;;4919067;29;20316;-73
2024/03/05 17:03:57;;;;;;;1.57;0.90;;;10.40;99.90;;;;;;4918857;29;20226;-73
2024/03/05 17:06:24;;;;;;;4.33;2.17;;;10.50;99.90;;;;;;4919257;29;20209;-72
2024/03/05 17:08:51;;;;;;;2.83;1.40;;;10.30;99.90;;;;;;4918850;29;20238;-73
2024/03/05 17:11:22;;;;;;;2.47;0.93;;;10.30;99.90;;;;;;4918773;29;20288;-72
2024/03/05 17:13:49;;;;;;;3.23;1.10;;;10.30;99.90;;;;;;4918920;29;20305;-73
2024/03/05 17:16:17;;;;;;;7.13;3.00;;;10.40;99.90;;;;;;4919082;29;20301;-73
2024/03/05 17:18:44;;;;;;;1.50;1.00;;;10.60;99.90;;;;;;4918677;29;20666;-73
2024/03/05 17:21:12;;;;;;;1.87;1.00;;;10.70;99.90;;;;;;4918707;29;20233;-73
2024/03/05 17:23:42;;;;;;;2.27;0.97;;;10.70;99.90;;;;;;4918225;29;20209;-73
2024/03/05 17:26:12;;;;;;;2.40;0.90;;;10.60;99.90;;;;;;4918446;29;20214;-73
2024/03/05 17:28:40;;;;;;;2.20;1.03;;;10.50;99.90;;;;;;4918104;29;20714;-73
2024/03/05 17:31:08;;;;;;;4.33;1.40;;;10.40;99.90;;;;;;4918751;29;20316;-73
2024/03/05 17:33:35;;;;;;;2.77;1.30;;;10.30;99.90;;;;;;4918110;29;20292;-73
2024/03/05 17:36:02;;;;;;;4.00;1.10;;;10.30;99.90;;;;;;4918236;29;20216;-73
2024/03/05 17:38:31;;;;;;;2.73;1.20;;;10.30;99.90;;;;;;4918315;29;20213;-73
2024/03/05 17:40:57;;;;;;;3.73;1.60;;;10.30;99.90;;;;;;4918471;29;20230;-73
2024/03/05 17:43:24;;;;;;;1.30;0.90;;;10.30;99.90;;;;;;4918465;29;20212;-72
2024/03/05 17:45:53;;;;;;;2.37;1.20;;;10.40;99.90;;;;;;4918354;29;20705;-73
2024/03/05 17:48:20;;;;;;;1.67;1.00;;;10.30;99.90;;;;;;4918066;29;20241;-72
2024/03/05 17:50:47;;;;;;;4.20;1.10;;;10.30;99.90;;;;;;4918156;29;20217;-73
2024/03/05 17:53:15;;;;;;;2.87;1.17;;;10.30;99.90;;;;;;4918051;29;20214;-72
2024/03/05 17:55:44;;;;;;;1.57;1.00;;;10.30;99.90;;;;;;4917978;29;20310;-73
2024/03/05 17:58:12;;;;;;;3.03;1.17;;;10.40;99.90;;;;;;4918065;29;20218;-73
2024/03/05 18:00:44;;;;;;;2.73;1.30;;;10.30;99.90;;;;;;4918006;29;20206;-73
2024/03/05 18:03:12;;;;;;;2.60;1.33;;;10.30;99.90;;;;;;4917605;29;20671;-73
2024/03/05 18:05:39;;;;;;;2.23;1.77;;;10.40;99.90;;;;;;4917860;29;20698;-73
2024/03/05 18:08:06;;;;;;;1.87;1.10;;;10.50;99.90;;;;;;4917855;29;20292;-72
2024/03/05 18:10:34;;;;;;;3.47;1.73;;;10.40;99.90;;;;;;4917906;29;20571;-74
2024/03/05 18:13:02;;;;;;;2.13;1.40;;;10.20;99.90;;;;;;4917778;29;20205;-72
2024/03/05 18:15:30;;;;;;;3.73;1.50;;;10.30;99.90;;;;;;4917809;29;20213;-73
2024/03/05 18:17:57;;;;;;;2.53;1.63;;;10.30;99.90;;;;;;4917933;29;20209;-73
2024/03/05 18:20:28;;;;;;;3.77;1.30;;;10.30;99.90;;;;;;4917550;29;20212;-73
2024/03/05 18:22:56;;;;;;;4.17;1.87;;;10.20;99.90;;;;;;4917673;29;20675;-73
2024/03/05 18:25:24;;;;;;;2.33;1.50;;;10.10;99.90;;;;;;4917634;29;20248;-72
2024/03/05 18:27:54;;;;;;;4.03;1.97;;;10.00;99.90;;;;;;4917469;29;20257;-75
2024/03/05 18:30:24;;;;;;;3.07;2.00;;;9.90;99.90;;;;;;4908786;29;20666;-73
2024/03/05 18:32:52;;;;;;;3.07;1.87;;;10.00;99.90;;;;;;4902890;29;20227;-73
2024/03/05 18:35:21;;;;;;;3.37;2.03;;;10.00;99.90;;;;;;4914914;29;20224;-73
2024/03/05 18:37:51;;;;;;;3.20;1.73;;;10.00;99.90;;;;;;4913380;29;20270;-73
2024/03/05 18:40:21;;;;;;;2.63;1.60;;;10.00;99.90;;;;;;4917933;29;20301;-73
2024/03/05 18:42:49;;;;;;;2.73;1.80;;;10.10;99.90;;;;;;4905049;29;20234;-73
2024/03/05 18:45:17;;;;;;;7.10;2.03;;;10.10;99.90;;;;;;4914561;29;20205;-73
2024/03/05 18:47:44;;;;;;;5.70;2.27;;;10.20;99.90;;;;;;4916407;29;20741;-73
2024/03/05 18:50:13;;;;;;;6.50;2.50;;;10.10;99.90;;;;;;4916299;29;20635;-73
2024/03/05 18:52:40;;;;;;;5.00;3.17;;;10.10;99.90;;;;;;4916772;29;20281;-73
2024/03/05 18:55:12;;;;;;;6.07;3.17;;;10.10;99.90;;;;;;4917138;29;20214;-73
2024/03/05 18:57:39;;;;;;;6.23;2.97;;;10.10;99.90;;;;;;4916459;29;20615;-73
2024/03/05 19:00:14;;;;;;;10.03;4.10;;;10.00;99.90;;;;;;4921676;29;20219;-73
2024/03/05 19:02:41;;;;;;;9.20;3.93;;;10.00;99.90;;;;;;4921415;29;20361;-73
2024/03/05 19:05:12;;;;;;;6.17;3.20;;;10.00;99.90;;;;;;4915790;29;20300;-73
2024/03/05 19:07:38;;;;;;;8.33;3.53;;;10.00;99.90;;;;;;4910942;29;20272;-73
2024/03/05 19:10:07;;;;;;;5.07;2.87;;;10.00;99.90;;;;;;4921084;29;20776;-73
2024/03/05 19:12:35;;;;;;;6.23;2.67;;;10.00;99.90;;;;;;4904554;29;20592;-73
2024/03/05 19:15:03;;;;;;;5.30;2.60;;;10.10;99.90;;;;;;4912786;29;20241;-73
2024/03/05 19:17:30;;;;;;;11.43;3.23;;;10.00;99.90;;;;;;4916989;29;20210;-73
2024/03/05 19:19:57;;;;;;;5.73;3.60;;;9.90;99.90;;;;;;4917337;29;20217;-73
2024/03/05 19:22:24;;;;;;;7.07;3.20;;;9.80;99.90;;;;;;4916335;29;20675;-73
2024/03/05 19:24:50;;;;;;;6.73;3.40;;;9.70;99.90;;;;;;4916541;29;20630;-73
2024/03/05 19:27:18;;;;;;;7.70;2.93;;;9.70;99.90;;;;;;4924215;29;20265;-73
2024/03/05 19:29:48;;;;;;;5.93;2.93;;;9.60;99.90;;;;;;4929975;29;20233;-73
2024/03/05 19:32:15;;;;;;;4.47;2.77;;;9.60;99.90;;;;;;4930440;29;20221;-73
2024/03/05 19:34:42;;;;;;;5.80;3.23;;;9.50;99.90;;;;;;4930344;29;20216;-73
2024/03/05 19:37:10;;;;;;;5.27;3.20;;;9.50;99.90;;;;;;4916367;29;20750;-73
2024/03/05 19:39:37;;;;;;;5.50;3.00;;;9.50;99.90;;;;;;4916464;29;20296;-73
2024/03/05 19:42:04;;;;;;;5.13;2.90;;;9.50;99.90;;;;;;4925454;29;20315;-73
2024/03/05 19:44:31;;;;;;;8.83;3.27;;;9.60;99.90;;;;;;4931778;29;20206;-72
2024/03/05 19:46:59;;;;;;;7.60;4.17;;;9.60;99.90;;;;;;4909027;29;20296;-73
2024/03/05 19:49:27;;;;;;;8.13;3.90;;;9.60;99.90;;;;;;4925869;29;20312;-73
2024/03/05 19:51:56;;;;;;;6.00;3.17;;;9.70;99.90;;;;;;4926023;29;20221;-72
2024/03/05 19:54:24;;;;;;;8.47;3.50;;;9.70;99.90;;;;;;4917799;29;20217;-72
2024/03/05 19:56:52;;;;;;;5.50;3.40;;;9.60;99.90;;;;;;4915781;29;20214;-72
2024/03/05 19:59:18;;;;;;;10.47;3.20;;;9.60;99.90;;;;;;4916016;29;20209;-72
2024/03/05 20:01:45;;;;;;;5.30;3.30;;;9.50;99.90;;;;;;4915782;29;20238;-72
2024/03/05 20:04:14;;;;;;;6.20;3.30;;;9.50;99.90;;;;;;4915647;29;20636;-72
2024/03/05 20:06:41;;;;;;;8.00;3.70;;;9.50;99.90;;;;;;4915730;29;20209;-72
2024/03/05 20:09:10;;;;;;;7.20;3.20;;;9.50;99.90;;;;;;4915598;29;20243;-72
2024/03/05 20:11:37;;;;;;;6.57;3.17;;;9.60;99.90;;;;;;4916085;29;20229;-71
2024/03/05 20:14:04;;;;;;;8.63;3.33;;;9.60;99.90;;;;;;4933624;29;20255;-72
2024/03/05 20:16:31;;;;;;;6.53;3.17;;;9.60;99.90;;;;;;4922622;29;20671;-72
2024/03/05 20:18:58;;;;;;;5.63;3.00;;;9.50;99.90;;;;;;4918650;29;20307;-72
2024/03/05 20:21:26;;;;;;;4.60;2.93;;;9.50;99.90;;;;;;4912819;29;20341;-72
2024/03/05 20:23:53;;;;;;;5.17;3.23;;;9.50;99.90;;;;;;4919293;29;20201;-72
2024/03/05 20:26:20;;;;;;;7.60;3.97;;;9.50;99.90;;;;;;4919051;29;20233;-73
2024/03/05 20:28:48;;;;;;;5.70;3.20;;;9.50;99.90;;;;;;4919087;29;20216;-72
2024/03/05 20:31:16;;;;;;;9.77;3.43;;;9.50;99.90;;;;;;4918598;29;20229;-72
2024/03/05 20:33:43;;;;;;;6.53;3.50;;;9.50;99.90;;;;;;4919881;29;20206;-72
2024/03/05 20:36:10;;;;;;;7.10;3.63;;;9.40;99.90;;;;;;4919739;29;20671;-72
2024/03/05 20:38:40;;;;;;;8.07;3.70;;;9.40;99.90;;;;;;4919191;29;20209;-73
2024/03/05 20:41:08;;;;;;;9.00;4.27;;;9.40;99.90;;;;;;4920759;29;20232;-72
2024/03/05 20:43:35;;;;;;;7.77;3.37;;;9.40;99.90;;;;;;4938122;29;20554;-73
2024/03/05 20:46:03;;;;;;;6.40;3.50;;;9.40;99.90;;;;;;4923018;29;20207;-71
2024/03/05 20:48:29;;;;;;;5.63;2.90;;;9.30;99.90;;;;;;4919425;29;20246;-71
2024/03/05 20:50:56;;;;;;;7.07;3.17;;;9.30;99.90;;;;;;4918940;29;20248;-72
2024/03/05 20:53:23;;;;;;;5.40;2.67;;;9.30;99.90;;;;;;4917099;29;20212;-73
2024/03/05 20:55:51;;;;;;;7.80;3.50;;;9.30;99.90;;;;;;4912859;29;20212;-72
2024/03/05 20:58:18;;;;;;;5.27;3.53;;;9.20;99.90;;;;;;4919548;29;20209;-72
2024/03/05 21:00:45;;;;;;;6.63;2.70;;;9.20;99.90;;;;;;4919901;29;20206;-72
2024/03/05 21:03:13;;;;;;;6.40;2.80;;;9.20;99.90;;;;;;4919781;29;20220;-72
2024/03/05 21:05:42;;;;;;;5.13;2.90;;;9.30;99.90;;;;;;4919592;29;20210;-72
2024/03/05 21:08:09;;;;;;;4.50;2.57;;;9.30;99.90;;;;;;4914123;29;20234;-72
2024/03/05 21:10:36;;;;;;;5.60;3.27;;;9.20;99.90;;;;;;4917345;29;20232;-72
2024/03/05 21:13:04;;;;;;;4.57;2.80;;;9.30;99.90;;;;;;4938139;29;20220;-72
2024/03/05 21:15:32;;;;;;;5.43;2.77;;;9.30;99.90;;;;;;4936594;29;20717;-72
2024/03/05 21:17:59;;;;;;;5.83;3.60;;;9.20;99.90;;;;;;4937456;29;20292;-72
2024/03/05 21:20:26;;;;;;;3.87;2.60;;;9.20;99.90;;;;;;4936387;29;20713;-72
2024/03/05 21:22:53;;;;;;;6.63;2.90;;;9.20;99.90;;;;;;4936779;29;20236;-72
2024/03/05 21:25:22;;;;;;;6.83;3.30;;;9.20;99.90;;;;;;4947906;23;20236;-71
2024/03/05 21:27:49;;;;;;;4.50;2.67;;;9.30;99.90;;;;;;4924993;29;20265;-72
2024/03/05 21:30:17;;;;;;;5.17;2.87;;;9.30;99.90;;;;;;4905716;29;20240;-73
2024/03/05 21:32:44;;;;;;;5.63;3.00;;;9.20;99.90;;;;;;4918685;29;20337;-71
2024/03/05 21:35:11;;;;;;;7.60;3.23;;;9.20;99.90;;;;;;4918560;29;20206;-72
2024/03/05 21:37:38;;;;;;;5.73;3.07;;;9.30;99.90;;;;;;4918123;29;20340;-72
2024/03/05 21:40:11;;;;;;;5.27;2.77;;;9.30;99.90;;;;;;4906067;29;20209;-73
2024/03/05 21:42:41;;;;;;;7.30;2.93;;;9.20;99.90;;;;;;4917919;29;20234;-72
2024/03/05 21:45:09;;;;;;;5.50;2.87;;;9.20;99.90;;;;;;4918496;29;20232;-73
2024/03/05 21:47:37;;;;;;;3.80;2.70;;;9.20;99.90;;;;;;4918016;29;20241;-72
2024/03/05 21:50:05;;;;;;;5.00;3.17;;;9.20;99.90;;;;;;4917951;29;20240;-73
2024/03/05 21:52:32;;;;;;;8.80;3.67;;;9.20;99.90;;;;;;4917674;29;20320;-72
2024/03/05 21:54:59;;;;;;;7.70;2.97;;;9.10;99.90;;;;;;4918100;29;20624;-73
2024/03/05 21:57:26;;;;;;;5.17;2.80;;;9.00;99.90;;;;;;4917597;29;20213;-73
2024/03/05 21:59:52;;;;;;;5.27;2.90;;;9.00;99.90;;;;;;4917852;29;20305;-73
2024/03/05 22:02:19;;;;;;;7.03;3.37;;;9.00;99.90;;;;;;4916857;29;20225;-71
2024/03/05 22:04:47;;;;;;;5.37;2.70;;;9.10;99.90;;;;;;4916973;29;20237;-73
2024/03/05 22:07:14;;;;;;;7.53;3.30;;;9.10;99.90;;;;;;4917722;29;20636;-72
2024/03/05 22:09:41;;;;;;;5.17;2.80;;;9.10;99.90;;;;;;4915051;29;20259;-72
2024/03/05 22:12:08;;;;;;;4.23;2.30;;;9.00;99.90;;;;;;4915927;29;20614;-72
2024/03/05 22:14:35;;;;;;;6.07;2.67;;;9.00;99.90;;;;;;4916414;29;20284;-74
2024/03/05 22:17:04;;;;;;;6.43;3.40;;;9.00;99.90;;;;;;4917425;29;20220;-72
2024/03/05 22:19:31;;;;;;;5.77;3.00;;;8.90;99.90;;;;;;4917459;29;20213;-72
2024/03/05 22:21:59;;;;;;;5.30;3.13;;;8.90;99.90;;;;;;4917915;29;20230;-72
2024/03/05 22:24:26;;;;;;;7.00;3.20;;;8.80;99.90;;;;;;4917321;29;20213;-71